sensor_id;sensor_type;location;lat;lon;timestamp;temperature;humidity
36594;DHT22;22603;47.900;8.146;2023-04-23T00:00:48;9.60;99.90
36594;DHT22;22603;47.900;8.146;2023-04-23T00:03:40;9.60;99.90
36594;DHT22;22603;47.900;8.146;2023-04-23T00:06:28;9.60;99.90
36594;DHT22;22603;47.900;8.146;2023-04-23T00:09:19;9.60;99.90
36594;DHT22;22603;47.900;8.146;2023-04-23T00:12:09;9.60;99.90
36594;DHT22;22603;47.900;8.146;2023-04-23T00:14:57;9.50;99.90
36594;DHT22;22603;47.900;8.146;2023-04-23T00:17:44;9.50;99.90
36594;DHT22;22603;47.900;8.146;2023-04-23T00:20:31;9.40;99.90
36594;DHT22;22603;47.900;8.146;2023-04-23T00:23:18;9.40;99.90
36594;DHT22;22603;47.900;8.146;2023-04-23T00:26:06;9.40;99.90
36594;DHT22;22603;47.900;8.146;2023-04-23T00:28:53;9.40;99.90
36594;DHT22;22603;47.900;8.146;2023-04-23T00:31:40;9.30;99.90
36594;DHT22;22603;47.900;8.146;2023-04-23T00:34:27;9.30;99.90
36594;DHT22;22603;47.900;8.146;2023-04-23T00:37:14;9.40;99.90
36594;DHT22;22603;47.900;8.146;2023-04-23T00:40:02;9.20;99.90
36594;DHT22;22603;47.900;8.146;2023-04-23T00:42:51;9.20;99.90
36594;DHT22;22603;47.900;8.146;2023-04-23T00:45:42;9.20;99.90
36594;DHT22;22603;47.900;8.146;2023-04-23T00:48:31;9.20;99.90
36594;DHT22;22603;47.900;8.146;2023-04-23T00:51:20;9.20;99.90
36594;DHT22;22603;47.900;8.146;2023-04-23T00:54:07;9.10;99.90
36594;DHT22;22603;47.900;8.146;2023-04-23T00:56:55;9.10;99.90
36594;DHT22;22603;47.900;8.146;2023-04-23T00:59:44;9.00;99.90
36594;DHT22;22603;47.900;8.146;2023-04-23T01:02:31;9.00;99.90
36594;DHT22;22603;47.900;8.146;2023-04-23T01:05:22;9.00;99.90
36594;DHT22;22603;47.900;8.146;2023-04-23T01:08:12;9.00;99.90
36594;DHT22;22603;47.900;8.146;2023-04-23T01:11:01;8.90;99.90
36594;DHT22;22603;47.900;8.146;2023-04-23T01:13:49;9.00;99.90
36594;DHT22;22603;47.900;8.146;2023-04-23T01:16:38;8.90;99.90
36594;DHT22;22603;47.900;8.146;2023-04-23T01:19:26;8.80;99.90
36594;DHT22;22603;47.900;8.146;2023-04-23T01:22:14;8.80;99.90
36594;DHT22;22603;47.900;8.146;2023-04-23T01:25:05;8.80;99.90
36594;DHT22;22603;47.900;8.146;2023-04-23T01:27:53;8.70;99.90
36594;DHT22;22603;47.900;8.146;2023-04-23T01:30:42;8.60;99.90
36594;DHT22;22603;47.900;8.146;2023-04-23T01:33:30;8.60;99.90
36594;DHT22;22603;47.900;8.146;2023-04-23T01:36:18;8.60;99.90
36594;DHT22;22603;47.900;8.146;2023-04-23T01:39:07;8.50;99.90
36594;DHT22;22603;47.900;8.146;2023-04-23T01:41:54;8.50;99.90
36594;DHT22;22603;47.900;8.146;2023-04-23T01:44:42;8.50;99.90
36594;DHT22;22603;47.900;8.146;2023-04-23T01:47:31;8.40;99.90
36594;DHT22;22603;47.900;8.146;2023-04-23T01:50:18;8.30;99.90
36594;DHT22;22603;47.900;8.146;2023-04-23T01:53:08;8.40;99.90
36594;DHT22;22603;47.900;8.146;2023-04-23T01:55:56;8.40;99.90
36594;DHT22;22603;47.900;8.146;2023-04-23T01:58:44;8.40;99.90
36594;DHT22;22603;47.900;8.146;2023-04-23T02:01:40;8.30;99.90
36594;DHT22;22603;47.900;8.146;2023-04-23T02:04:29;8.30;99.90
36594;DHT22;22603;47.900;8.146;2023-04-23T02:07:16;8.30;99.90
36594;DHT22;22603;47.900;8.146;2023-04-23T02:10:08;8.30;99.90
36594;DHT22;22603;47.900;8.146;2023-04-23T02:12:58;8.30;99.90
36594;DHT22;22603;47.900;8.146;2023-04-23T02:15:45;8.30;99.90
36594;DHT22;22603;47.900;8.146;2023-04-23T02:18:32;8.20;99.90
36594;DHT22;22603;47.900;8.146;2023-04-23T02:21:20;8.20;99.90
36594;DHT22;22603;47.900;8.146;2023-04-23T02:24:07;8.20;99.90
36594;DHT22;22603;47.900;8.146;2023-04-23T02:26:54;8.10;99.90
36594;DHT22;22603;47.900;8.146;2023-04-23T02:29:44;8.10;99.90
36594;DHT22;22603;47.900;8.146;2023-04-23T02:32:31;8.10;99.90
36594;DHT22;22603;47.900;8.146;2023-04-23T02:35:23;8.10;99.90
36594;DHT22;22603;47.900;8.146;2023-04-23T02:38:10;8.10;99.90
36594;DHT22;22603;47.900;8.146;2023-04-23T02:40:57;8.00;99.90
36594;DHT22;22603;47.900;8.146;2023-04-23T02:43:44;8.00;99.90
36594;DHT22;22603;47.900;8.146;2023-04-23T02:46:32;8.00;99.90
36594;DHT22;22603;47.900;8.146;2023-04-23T02:49:20;7.90;99.90
36594;DHT22;22603;47.900;8.146;2023-04-23T02:52:07;7.90;99.90
36594;DHT22;22603;47.900;8.146;2023-04-23T02:54:54;7.80;99.90
36594;DHT22;22603;47.900;8.146;2023-04-23T02:57:41;7.80;99.90
36594;DHT22;22603;47.900;8.146;2023-04-23T03:00:29;7.80;99.90
36594;DHT22;22603;47.900;8.146;2023-04-23T03:03:17;7.60;99.90
36594;DHT22;22603;47.900;8.146;2023-04-23T03:06:05;7.70;99.90
36594;DHT22;22603;47.900;8.146;2023-04-23T03:08:52;7.70;99.90
36594;DHT22;22603;47.900;8.146;2023-04-23T03:11:39;7.60;99.90
36594;DHT22;22603;47.900;8.146;2023-04-23T03:14:27;7.60;99.90
36594;DHT22;22603;47.900;8.146;2023-04-23T03:17:15;7.80;99.90
36594;DHT22;22603;47.900;8.146;2023-04-23T03:20:05;7.70;99.90
36594;DHT22;22603;47.900;8.146;2023-04-23T03:22:53;7.70;99.90
36594;DHT22;22603;47.900;8.146;2023-04-23T03:25:40;7.80;99.90
36594;DHT22;22603;47.900;8.146;2023-04-23T03:28:27;7.70;99.90
36594;DHT22;22603;47.900;8.146;2023-04-23T03:31:13;7.80;99.90
36594;DHT22;22603;47.900;8.146;2023-04-23T03:34:01;7.80;99.90
36594;DHT22;22603;47.900;8.146;2023-04-23T03:36:50;7.80;99.90
36594;DHT22;22603;47.900;8.146;2023-04-23T03:39:36;7.70;99.90
36594;DHT22;22603;47.900;8.146;2023-04-23T03:42:24;7.70;99.90
36594;DHT22;22603;47.900;8.146;2023-04-23T03:45:11;7.80;99.90
36594;DHT22;22603;47.900;8.146;2023-04-23T03:47:58;7.70;99.90
36594;DHT22;22603;47.900;8.146;2023-04-23T03:50:45;7.70;99.90
36594;DHT22;22603;47.900;8.146;2023-04-23T03:53:34;7.60;99.90
36594;DHT22;22603;47.900;8.146;2023-04-23T03:56:21;7.60;99.90
36594;DHT22;22603;47.900;8.146;2023-04-23T03:59:11;7.60;99.90
36594;DHT22;22603;47.900;8.146;2023-04-23T04:01:58;7.60;99.90
36594;DHT22;22603;47.900;8.146;2023-04-23T04:04:45;7.60;99.90
36594;DHT22;22603;47.900;8.146;2023-04-23T04:07:34;7.50;99.90
36594;DHT22;22603;47.900;8.146;2023-04-23T04:10:23;7.50;99.90
36594;DHT22;22603;47.900;8.146;2023-04-23T04:13:10;7.50;99.90
36594;DHT22;22603;47.900;8.146;2023-04-23T04:15:56;7.50;99.90
36594;DHT22;22603;47.900;8.146;2023-04-23T04:18:43;7.50;99.90
36594;DHT22;22603;47.900;8.146;2023-04-23T04:21:31;7.60;99.90
36594;DHT22;22603;47.900;8.146;2023-04-23T04:24:18;7.60;99.90
36594;DHT22;22603;47.900;8.146;2023-04-23T04:27:10;7.60;99.90
36594;DHT22;22603;47.900;8.146;2023-04-23T04:29:57;7.50;99.90
36594;DHT22;22603;47.900;8.146;2023-04-23T04:32:45;7.60;99.90
36594;DHT22;22603;47.900;8.146;2023-04-23T04:35:35;7.60;99.90
36594;DHT22;22603;47.900;8.146;2023-04-23T04:38:22;7.60;99.90
36594;DHT22;22603;47.900;8.146;2023-04-23T04:41:09;7.60;99.90
36594;DHT22;22603;47.900;8.146;2023-04-23T04:43:57;7.60;99.90
36594;DHT22;22603;47.900;8.146;2023-04-23T04:46:44;7.60;99.90
36594;DHT22;22603;47.900;8.146;2023-04-23T04:49:32;7.60;99.90
36594;DHT22;22603;47.900;8.146;2023-04-23T04:52:22;7.60;99.90
36594;DHT22;22603;47.900;8.146;2023-04-23T04:55:09;7.60;99.90
36594;DHT22;22603;47.900;8.146;2023-04-23T04:57:55;7.60;99.90
36594;DHT22;22603;47.900;8.146;2023-04-23T05:00:44;7.60;99.90
36594;DHT22;22603;47.900;8.146;2023-04-23T05:03:31;7.60;99.90
36594;DHT22;22603;47.900;8.146;2023-04-23T05:06:18;7.60;99.90
36594;DHT22;22603;47.900;8.146;2023-04-23T05:09:05;7.70;99.90
36594;DHT22;22603;47.900;8.146;2023-04-23T05:11:52;7.70;99.90
36594;DHT22;22603;47.900;8.146;2023-04-23T05:14:39;7.80;99.90
36594;DHT22;22603;47.900;8.146;2023-04-23T05:17:29;7.80;99.90
36594;DHT22;22603;47.900;8.146;2023-04-23T05:20:16;7.80;99.90
36594;DHT22;22603;47.900;8.146;2023-04-23T05:23:03;7.90;99.90
36594;DHT22;22603;47.900;8.146;2023-04-23T05:25:50;8.00;99.90
36594;DHT22;22603;47.900;8.146;2023-04-23T05:28:40;8.00;99.90
36594;DHT22;22603;47.900;8.146;2023-04-23T05:31:27;8.00;99.90
36594;DHT22;22603;47.900;8.146;2023-04-23T05:34:16;8.10;99.90
36594;DHT22;22603;47.900;8.146;2023-04-23T05:37:03;8.10;99.90
36594;DHT22;22603;47.900;8.146;2023-04-23T05:39:51;8.10;99.90
36594;DHT22;22603;47.900;8.146;2023-04-23T05:42:38;8.20;99.90
36594;DHT22;22603;47.900;8.146;2023-04-23T05:45:25;8.20;99.90
36594;DHT22;22603;47.900;8.146;2023-04-23T05:48:12;8.20;99.90
36594;DHT22;22603;47.900;8.146;2023-04-23T05:51:01;8.30;99.90
36594;DHT22;22603;47.900;8.146;2023-04-23T05:53:48;8.30;99.90
36594;DHT22;22603;47.900;8.146;2023-04-23T05:56:35;8.40;99.90
36594;DHT22;22603;47.900;8.146;2023-04-23T05:59:22;8.50;99.90
36594;DHT22;22603;47.900;8.146;2023-04-23T06:02:09;8.60;99.90
36594;DHT22;22603;47.900;8.146;2023-04-23T06:04:57;8.70;99.90
36594;DHT22;22603;47.900;8.146;2023-04-23T06:07:45;8.80;99.90
36594;DHT22;22603;47.900;8.146;2023-04-23T06:10:32;8.80;99.90
36594;DHT22;22603;47.900;8.146;2023-04-23T06:13:20;8.90;99.90
36594;DHT22;22603;47.900;8.146;2023-04-23T06:16:06;9.10;99.90
36594;DHT22;22603;47.900;8.146;2023-04-23T06:18:54;9.10;99.90
36594;DHT22;22603;47.900;8.146;2023-04-23T06:21:41;9.20;99.90
36594;DHT22;22603;47.900;8.146;2023-04-23T06:24:30;9.30;99.90
36594;DHT22;22603;47.900;8.146;2023-04-23T06:27:17;9.60;99.90
36594;DHT22;22603;47.900;8.146;2023-04-23T06:30:05;9.70;99.90
36594;DHT22;22603;47.900;8.146;2023-04-23T06:32:52;9.90;99.90
36594;DHT22;22603;47.900;8.146;2023-04-23T06:35:39;10.20;99.90
36594;DHT22;22603;47.900;8.146;2023-04-23T06:38:27;9.50;99.90
36594;DHT22;22603;47.900;8.146;2023-04-23T06:41:15;9.70;99.90
36594;DHT22;22603;47.900;8.146;2023-04-23T06:44:02;10.40;99.90
36594;DHT22;22603;47.900;8.146;2023-04-23T06:46:51;10.50;99.90
36594;DHT22;22603;47.900;8.146;2023-04-23T06:49:38;11.20;99.90
36594;DHT22;22603;47.900;8.146;2023-04-23T06:52:26;11.80;99.90
36594;DHT22;22603;47.900;8.146;2023-04-23T06:55:13;12.50;99.90
36594;DHT22;22603;47.900;8.146;2023-04-23T06:58:01;13.00;99.90
36594;DHT22;22603;47.900;8.146;2023-04-23T07:00:48;13.60;99.90
36594;DHT22;22603;47.900;8.146;2023-04-23T07:03:36;13.40;99.90
36594;DHT22;22603;47.900;8.146;2023-04-23T07:06:22;13.20;99.90
36594;DHT22;22603;47.900;8.146;2023-04-23T07:09:09;13.20;99.90
36594;DHT22;22603;47.900;8.146;2023-04-23T07:11:57;13.00;99.90
36594;DHT22;22603;47.900;8.146;2023-04-23T07:14:46;13.00;99.90
36594;DHT22;22603;47.900;8.146;2023-04-23T07:17:33;13.00;99.90
36594;DHT22;22603;47.900;8.146;2023-04-23T07:20:22;12.70;99.90
36594;DHT22;22603;47.900;8.146;2023-04-23T07:23:09;12.40;99.90
36594;DHT22;22603;47.900;8.146;2023-04-23T07:25:56;12.30;99.90
36594;DHT22;22603;47.900;8.146;2023-04-23T07:28:43;12.00;99.90
36594;DHT22;22603;47.900;8.146;2023-04-23T07:31:33;11.70;99.90
36594;DHT22;22603;47.900;8.146;2023-04-23T07:34:20;12.00;99.90
36594;DHT22;22603;47.900;8.146;2023-04-23T07:37:07;12.90;99.90
36594;DHT22;22603;47.900;8.146;2023-04-23T07:39:54;13.60;99.90
36594;DHT22;22603;47.900;8.146;2023-04-23T07:42:41;14.40;99.90
36594;DHT22;22603;47.900;8.146;2023-04-23T07:45:28;15.80;99.90
36594;DHT22;22603;47.900;8.146;2023-04-23T07:48:16;15.30;99.90
36594;DHT22;22603;47.900;8.146;2023-04-23T07:51:03;14.10;99.90
36594;DHT22;22603;47.900;8.146;2023-04-23T07:53:51;13.80;99.90
36594;DHT22;22603;47.900;8.146;2023-04-23T07:56:39;13.90;99.90
36594;DHT22;22603;47.900;8.146;2023-04-23T07:59:27;13.60;99.90
36594;DHT22;22603;47.900;8.146;2023-04-23T08:02:15;14.00;99.90
36594;DHT22;22603;47.900;8.146;2023-04-23T08:05:05;13.70;99.90
36594;DHT22;22603;47.900;8.146;2023-04-23T08:07:53;13.90;99.90
36594;DHT22;22603;47.900;8.146;2023-04-23T08:10:40;13.00;99.90
36594;DHT22;22603;47.900;8.146;2023-04-23T08:13:27;13.60;99.90
36594;DHT22;22603;47.900;8.146;2023-04-23T08:16:14;13.80;99.90
36594;DHT22;22603;47.900;8.146;2023-04-23T08:19:01;13.60;99.90
36594;DHT22;22603;47.900;8.146;2023-04-23T08:21:52;13.60;99.90
36594;DHT22;22603;47.900;8.146;2023-04-23T08:24:39;14.80;99.90
36594;DHT22;22603;47.900;8.146;2023-04-23T08:27:26;15.20;99.90
36594;DHT22;22603;47.900;8.146;2023-04-23T08:30:14;14.70;99.90
36594;DHT22;22603;47.900;8.146;2023-04-23T08:33:01;14.60;99.90
36594;DHT22;22603;47.900;8.146;2023-04-23T08:35:48;14.50;99.90
36594;DHT22;22603;47.900;8.146;2023-04-23T08:38:37;14.20;99.90
36594;DHT22;22603;47.900;8.146;2023-04-23T08:41:27;13.70;99.90
36594;DHT22;22603;47.900;8.146;2023-04-23T08:44:18;13.70;99.90
36594;DHT22;22603;47.900;8.146;2023-04-23T08:47:10;14.60;99.90
36594;DHT22;22603;47.900;8.146;2023-04-23T08:49:58;15.30;99.90
36594;DHT22;22603;47.900;8.146;2023-04-23T08:52:48;15.50;99.90
36594;DHT22;22603;47.900;8.146;2023-04-23T08:55:40;16.20;99.90
36594;DHT22;22603;47.900;8.146;2023-04-23T08:58:27;16.90;99.90
36594;DHT22;22603;47.900;8.146;2023-04-23T09:01:14;18.00;99.90
36594;DHT22;22603;47.900;8.146;2023-04-23T09:04:01;17.90;99.90
36594;DHT22;22603;47.900;8.146;2023-04-23T09:06:48;17.10;99.90
36594;DHT22;22603;47.900;8.146;2023-04-23T09:09:36;16.50;99.90
36594;DHT22;22603;47.900;8.146;2023-04-23T09:12:27;16.30;99.90
36594;DHT22;22603;47.900;8.146;2023-04-23T09:15:13;16.80;99.90
36594;DHT22;22603;47.900;8.146;2023-04-23T09:18:01;16.20;99.90
36594;DHT22;22603;47.900;8.146;2023-04-23T09:20:48;15.80;99.90
36594;DHT22;22603;47.900;8.146;2023-04-23T09:23:38;15.50;99.90
36594;DHT22;22603;47.900;8.146;2023-04-23T09:26:25;15.50;99.90
36594;DHT22;22603;47.900;8.146;2023-04-23T09:29:15;15.40;99.90
36594;DHT22;22603;47.900;8.146;2023-04-23T09:32:07;15.50;99.90
36594;DHT22;22603;47.900;8.146;2023-04-23T09:34:55;15.80;99.90
36594;DHT22;22603;47.900;8.146;2023-04-23T09:37:44;15.30;99.90
36594;DHT22;22603;47.900;8.146;2023-04-23T09:40:33;15.20;99.90
36594;DHT22;22603;47.900;8.146;2023-04-23T09:43:22;15.30;99.90
36594;DHT22;22603;47.900;8.146;2023-04-23T09:46:10;14.40;99.90
36594;DHT22;22603;47.900;8.146;2023-04-23T09:48:57;14.60;99.90
36594;DHT22;22603;47.900;8.146;2023-04-23T09:51:47;16.00;99.90
36594;DHT22;22603;47.900;8.146;2023-04-23T09:54:34;16.50;99.90
36594;DHT22;22603;47.900;8.146;2023-04-23T09:57:23;16.70;99.90
36594;DHT22;22603;47.900;8.146;2023-04-23T10:00:15;16.20;99.90
36594;DHT22;22603;47.900;8.146;2023-04-23T10:03:05;16.70;99.90
36594;DHT22;22603;47.900;8.146;2023-04-23T10:05:54;16.20;99.90
36594;DHT22;22603;47.900;8.146;2023-04-23T10:08:47;15.80;99.90
36594;DHT22;22603;47.900;8.146;2023-04-23T10:11:34;15.40;99.90
36594;DHT22;22603;47.900;8.146;2023-04-23T10:14:22;15.30;99.90
36594;DHT22;22603;47.900;8.146;2023-04-23T10:17:10;16.30;99.90
36594;DHT22;22603;47.900;8.146;2023-04-23T10:20:00;16.70;99.90
36594;DHT22;22603;47.900;8.146;2023-04-23T10:22:48;16.70;99.90
36594;DHT22;22603;47.900;8.146;2023-04-23T10:25:38;16.50;99.90
36594;DHT22;22603;47.900;8.146;2023-04-23T10:28:29;16.80;99.90
36594;DHT22;22603;47.900;8.146;2023-04-23T10:31:19;16.60;99.90
36594;DHT22;22603;47.900;8.146;2023-04-23T10:34:06;17.00;99.90
36594;DHT22;22603;47.900;8.146;2023-04-23T10:36:58;17.60;99.90
36594;DHT22;22603;47.900;8.146;2023-04-23T10:39:49;17.00;99.90
36594;DHT22;22603;47.900;8.146;2023-04-23T10:42:39;16.90;99.90
36594;DHT22;22603;47.900;8.146;2023-04-23T10:45:29;16.70;99.90
36594;DHT22;22603;47.900;8.146;2023-04-23T10:48:17;16.90;99.90
36594;DHT22;22603;47.900;8.146;2023-04-23T10:51:04;17.10;99.90
36594;DHT22;22603;47.900;8.146;2023-04-23T10:54:15;17.80;99.90
36594;DHT22;22603;47.900;8.146;2023-04-23T10:57:03;17.40;99.90
36594;DHT22;22603;47.900;8.146;2023-04-23T10:59:52;17.30;99.90
36594;DHT22;22603;47.900;8.146;2023-04-23T11:02:42;16.20;99.90
36594;DHT22;22603;47.900;8.146;2023-04-23T11:05:34;17.10;99.90
36594;DHT22;22603;47.900;8.146;2023-04-23T11:08:21;17.10;99.90
36594;DHT22;22603;47.900;8.146;2023-04-23T11:11:10;17.30;99.90
36594;DHT22;22603;47.900;8.146;2023-04-23T11:13:57;18.20;99.90
36594;DHT22;22603;47.900;8.146;2023-04-23T11:16:59;17.90;99.90
36594;DHT22;22603;47.900;8.146;2023-04-23T11:20:07;18.50;99.90
36594;DHT22;22603;47.900;8.146;2023-04-23T11:22:54;18.00;99.90
36594;DHT22;22603;47.900;8.146;2023-04-23T11:25:42;18.40;99.90
36594;DHT22;22603;47.900;8.146;2023-04-23T11:28:33;18.30;99.90
36594;DHT22;22603;47.900;8.146;2023-04-23T11:31:21;19.00;99.90
36594;DHT22;22603;47.900;8.146;2023-04-23T11:34:08;19.10;99.90
36594;DHT22;22603;47.900;8.146;2023-04-23T11:36:58;18.50;99.90
36594;DHT22;22603;47.900;8.146;2023-04-23T11:39:46;18.10;99.90
36594;DHT22;22603;47.900;8.146;2023-04-23T11:45:29;20.20;99.90
36594;DHT22;22603;47.900;8.146;2023-04-23T11:48:17;20.20;99.90
36594;DHT22;22603;47.900;8.146;2023-04-23T11:51:04;19.10;99.90
36594;DHT22;22603;47.900;8.146;2023-04-23T11:53:51;19.10;99.90
36594;DHT22;22603;47.900;8.146;2023-04-23T11:56:39;19.60;99.90
36594;DHT22;22603;47.900;8.146;2023-04-23T11:59:26;18.50;99.90
36594;DHT22;22603;47.900;8.146;2023-04-23T12:02:15;18.60;99.90
36594;DHT22;22603;47.900;8.146;2023-04-23T12:05:04;18.60;99.90
36594;DHT22;22603;47.900;8.146;2023-04-23T12:07:53;19.00;99.90
36594;DHT22;22603;47.900;8.146;2023-04-23T12:10:41;18.00;99.90
36594;DHT22;22603;47.900;8.146;2023-04-23T12:13:30;18.30;99.90
36594;DHT22;22603;47.900;8.146;2023-04-23T12:16:32;18.70;99.90
36594;DHT22;22603;47.900;8.146;2023-04-23T12:19:25;17.80;99.90
36594;DHT22;22603;47.900;8.146;2023-04-23T12:22:13;17.20;99.90
36594;DHT22;22603;47.900;8.146;2023-04-23T12:25:04;16.60;99.90
36594;DHT22;22603;47.900;8.146;2023-04-23T12:27:57;15.90;99.90
36594;DHT22;22603;47.900;8.146;2023-04-23T12:30:45;16.40;99.90
36594;DHT22;22603;47.900;8.146;2023-04-23T12:33:32;17.40;99.90
36594;DHT22;22603;47.900;8.146;2023-04-23T12:36:26;17.40;99.90
36594;DHT22;22603;47.900;8.146;2023-04-23T12:39:25;16.80;99.90
36594;DHT22;22603;47.900;8.146;2023-04-23T12:42:13;17.20;99.90
36594;DHT22;22603;47.900;8.146;2023-04-23T12:45:08;17.40;99.90
36594;DHT22;22603;47.900;8.146;2023-04-23T12:47:55;17.20;99.90
36594;DHT22;22603;47.900;8.146;2023-04-23T12:50:43;17.30;99.90
36594;DHT22;22603;47.900;8.146;2023-04-23T12:53:32;17.70;99.90
36594;DHT22;22603;47.900;8.146;2023-04-23T12:56:19;17.20;99.90
36594;DHT22;22603;47.900;8.146;2023-04-23T12:59:06;16.20;99.90
36594;DHT22;22603;47.900;8.146;2023-04-23T13:01:53;16.10;99.90
36594;DHT22;22603;47.900;8.146;2023-04-23T13:04:41;16.00;99.90
36594;DHT22;22603;47.900;8.146;2023-04-23T13:07:28;16.10;99.90
36594;DHT22;22603;47.900;8.146;2023-04-23T13:10:16;16.30;99.90
36594;DHT22;22603;47.900;8.146;2023-04-23T13:13:04;15.70;99.90
36594;DHT22;22603;47.900;8.146;2023-04-23T13:15:50;16.10;99.90
36594;DHT22;22603;47.900;8.146;2023-04-23T13:18:38;16.50;99.90
36594;DHT22;22603;47.900;8.146;2023-04-23T13:21:25;16.50;99.90
36594;DHT22;22603;47.900;8.146;2023-04-23T13:24:12;16.50;99.90
36594;DHT22;22603;47.900;8.146;2023-04-23T13:27:01;16.20;99.90
36594;DHT22;22603;47.900;8.146;2023-04-23T13:29:48;15.90;99.90
36594;DHT22;22603;47.900;8.146;2023-04-23T13:32:35;16.40;99.90
36594;DHT22;22603;47.900;8.146;2023-04-23T13:35:22;16.40;99.90
36594;DHT22;22603;47.900;8.146;2023-04-23T13:38:09;16.70;99.90
36594;DHT22;22603;47.900;8.146;2023-04-23T13:40:56;16.20;99.90
36594;DHT22;22603;47.900;8.146;2023-04-23T13:43:45;16.50;99.90
36594;DHT22;22603;47.900;8.146;2023-04-23T13:46:31;17.00;99.90
36594;DHT22;22603;47.900;8.146;2023-04-23T13:49:18;17.30;99.90
36594;DHT22;22603;47.900;8.146;2023-04-23T13:52:05;16.80;99.90
36594;DHT22;22603;47.900;8.146;2023-04-23T13:54:53;17.00;99.90
36594;DHT22;22603;47.900;8.146;2023-04-23T13:57:41;17.00;99.90
36594;DHT22;22603;47.900;8.146;2023-04-23T14:00:30;17.00;99.90
36594;DHT22;22603;47.900;8.146;2023-04-23T14:03:17;17.30;99.90
36594;DHT22;22603;47.900;8.146;2023-04-23T14:06:04;17.10;99.90
36594;DHT22;22603;47.900;8.146;2023-04-23T14:08:52;17.30;99.90
36594;DHT22;22603;47.900;8.146;2023-04-23T14:11:39;17.80;99.90
36594;DHT22;22603;47.900;8.146;2023-04-23T14:14:26;17.50;99.90
36594;DHT22;22603;47.900;8.146;2023-04-23T14:17:16;17.50;99.90
36594;DHT22;22603;47.900;8.146;2023-04-23T14:20:03;17.40;99.90
36594;DHT22;22603;47.900;8.146;2023-04-23T14:22:57;16.80;99.90
36594;DHT22;22603;47.900;8.146;2023-04-23T14:25:46;16.80;99.90
36594;DHT22;22603;47.900;8.146;2023-04-23T14:28:39;16.90;99.90
36594;DHT22;22603;47.900;8.146;2023-04-23T14:31:26;16.00;99.90
36594;DHT22;22603;47.900;8.146;2023-04-23T14:34:16;14.70;99.90
36594;DHT22;22603;47.900;8.146;2023-04-23T14:37:05;14.00;99.90
36594;DHT22;22603;47.900;8.146;2023-04-23T14:39:52;13.90;99.90
36594;DHT22;22603;47.900;8.146;2023-04-23T14:42:39;14.00;99.90
36594;DHT22;22603;47.900;8.146;2023-04-23T14:45:25;13.50;99.90
36594;DHT22;22603;47.900;8.146;2023-04-23T14:48:16;13.70;99.90
36594;DHT22;22603;47.900;8.146;2023-04-23T14:51:04;13.50;99.90
36594;DHT22;22603;47.900;8.146;2023-04-23T14:53:52;13.80;99.90
36594;DHT22;22603;47.900;8.146;2023-04-23T14:56:41;14.30;99.90
36594;DHT22;22603;47.900;8.146;2023-04-23T14:59:28;14.70;99.90
36594;DHT22;22603;47.900;8.146;2023-04-23T15:02:15;15.00;99.90
36594;DHT22;22603;47.900;8.146;2023-04-23T15:05:02;15.10;99.90
36594;DHT22;22603;47.900;8.146;2023-04-23T15:07:50;15.30;99.90
36594;DHT22;22603;47.900;8.146;2023-04-23T15:10:38;15.40;99.90
36594;DHT22;22603;47.900;8.146;2023-04-23T15:13:38;15.70;99.90
36594;DHT22;22603;47.900;8.146;2023-04-23T15:16:30;16.10;99.90
36594;DHT22;22603;47.900;8.146;2023-04-23T15:19:21;16.30;99.90
36594;DHT22;22603;47.900;8.146;2023-04-23T15:22:08;15.70;99.90
36594;DHT22;22603;47.900;8.146;2023-04-23T15:24:56;16.00;99.90
36594;DHT22;22603;47.900;8.146;2023-04-23T15:27:44;16.20;99.90
36594;DHT22;22603;47.900;8.146;2023-04-23T15:30:30;16.00;99.90
36594;DHT22;22603;47.900;8.146;2023-04-23T15:33:17;16.20;99.90
36594;DHT22;22603;47.900;8.146;2023-04-23T15:36:07;16.60;99.90
36594;DHT22;22603;47.900;8.146;2023-04-23T15:38:54;16.70;99.90
36594;DHT22;22603;47.900;8.146;2023-04-23T15:41:43;16.10;99.90
36594;DHT22;22603;47.900;8.146;2023-04-23T15:44:30;16.00;99.90
36594;DHT22;22603;47.900;8.146;2023-04-23T15:47:18;15.60;99.90
36594;DHT22;22603;47.900;8.146;2023-04-23T15:50:07;15.30;99.90
36594;DHT22;22603;47.900;8.146;2023-04-23T15:52:54;15.40;99.90
36594;DHT22;22603;47.900;8.146;2023-04-23T15:55:43;15.30;99.90
36594;DHT22;22603;47.900;8.146;2023-04-23T15:58:31;15.50;99.90
36594;DHT22;22603;47.900;8.146;2023-04-23T16:01:18;15.60;99.90
36594;DHT22;22603;47.900;8.146;2023-04-23T16:04:05;15.60;99.90
36594;DHT22;22603;47.900;8.146;2023-04-23T16:06:56;15.40;99.90
36594;DHT22;22603;47.900;8.146;2023-04-23T16:09:43;15.20;99.90
36594;DHT22;22603;47.900;8.146;2023-04-23T16:12:30;15.00;99.90
36594;DHT22;22603;47.900;8.146;2023-04-23T16:15:19;14.90;99.90
36594;DHT22;22603;47.900;8.146;2023-04-23T16:18:06;14.90;99.90
36594;DHT22;22603;47.900;8.146;2023-04-23T16:20:54;14.70;99.90
36594;DHT22;22603;47.900;8.146;2023-04-23T16:23:41;14.60;99.90
36594;DHT22;22603;47.900;8.146;2023-04-23T16:26:28;14.40;99.90
36594;DHT22;22603;47.900;8.146;2023-04-23T16:29:15;14.30;99.90
36594;DHT22;22603;47.900;8.146;2023-04-23T16:32:08;14.30;99.90
36594;DHT22;22603;47.900;8.146;2023-04-23T16:34:55;14.30;99.90
36594;DHT22;22603;47.900;8.146;2023-04-23T16:37:42;14.40;99.90
36594;DHT22;22603;47.900;8.146;2023-04-23T16:40:28;14.60;99.90
36594;DHT22;22603;47.900;8.146;2023-04-23T16:43:15;14.70;99.90
36594;DHT22;22603;47.900;8.146;2023-04-23T16:46:02;14.70;99.90
36594;DHT22;22603;47.900;8.146;2023-04-23T16:48:50;14.40;99.90
36594;DHT22;22603;47.900;8.146;2023-04-23T16:51:37;14.30;99.90
36594;DHT22;22603;47.900;8.146;2023-04-23T16:54:25;14.30;99.90
36594;DHT22;22603;47.900;8.146;2023-04-23T16:57:12;13.90;99.90
36594;DHT22;22603;47.900;8.146;2023-04-23T16:59:59;13.80;99.90
36594;DHT22;22603;47.900;8.146;2023-04-23T17:02:46;13.70;99.90
36594;DHT22;22603;47.900;8.146;2023-04-23T17:05:37;13.50;99.90
36594;DHT22;22603;47.900;8.146;2023-04-23T17:08:24;13.50;99.90
36594;DHT22;22603;47.900;8.146;2023-04-23T17:11:13;13.30;99.90
36594;DHT22;22603;47.900;8.146;2023-04-23T17:14:00;13.20;99.90
36594;DHT22;22603;47.900;8.146;2023-04-23T17:16:47;13.10;99.90
36594;DHT22;22603;47.900;8.146;2023-04-23T17:19:35;13.00;99.90
36594;DHT22;22603;47.900;8.146;2023-04-23T17:22:23;12.90;99.90
36594;DHT22;22603;47.900;8.146;2023-04-23T17:25:10;12.90;99.90
36594;DHT22;22603;47.900;8.146;2023-04-23T17:27:57;12.70;99.90
36594;DHT22;22603;47.900;8.146;2023-04-23T17:30:44;12.50;99.90
36594;DHT22;22603;47.900;8.146;2023-04-23T17:33:32;12.30;99.90
36594;DHT22;22603;47.900;8.146;2023-04-23T17:36:19;12.30;99.90
36594;DHT22;22603;47.900;8.146;2023-04-23T17:39:07;12.10;99.90
36594;DHT22;22603;47.900;8.146;2023-04-23T17:41:54;12.10;99.90
36594;DHT22;22603;47.900;8.146;2023-04-23T17:44:41;12.10;99.90
36594;DHT22;22603;47.900;8.146;2023-04-23T17:47:29;12.00;99.90
36594;DHT22;22603;47.900;8.146;2023-04-23T17:50:16;12.00;99.90
36594;DHT22;22603;47.900;8.146;2023-04-23T17:53:03;11.70;99.90